createdAt,value
2019-04-25T00:00:48.269Z,100083.63
2019-04-25T00:04:52.091Z,100053.64
2019-04-25T00:08:55.752Z,100024.77
2019-04-25T00:13:03.632Z,100031.02
2019-04-25T00:17:08.412Z,100025.44
2019-04-25T00:21:19.767Z,100051.85
2019-04-25T00:25:31.334Z,100056.03
2019-04-25T00:29:35.316Z,100065.27
2019-04-25T00:33:38.812Z,100046.98
2019-04-25T00:37:44.342Z,100048.78
2019-04-25T00:41:47.549Z,100018.92
2019-04-25T00:45:51.645Z,100040.61
2019-04-25T00:49:56.143Z,100052.71
2019-04-25T00:53:59.960Z,100100.75
2019-04-25T00:58:05.963Z,100125.00
2019-04-25T01:02:11.503Z,100129.63
2019-04-25T01:06:15.526Z,100135.89
2019-04-25T01:10:19.214Z,100145.37
2019-04-25T01:14:22.727Z,100159.39
2019-04-25T01:18:27.418Z,100183.69
2019-04-25T01:22:31.204Z,100186.56
2019-04-25T01:26:34.972Z,100192.98
2019-04-25T01:30:39.185Z,100183.95
2019-04-25T01:34:44.384Z,100197.17
2019-04-25T01:38:58.886Z,100192.02
2019-04-25T01:43:13.793Z,100205.94
2019-04-25T01:47:18.909Z,100215.17
2019-04-25T01:51:24.004Z,100195.66
2019-04-25T01:55:27.638Z,100214.40
2019-04-25T01:59:31.119Z,100223.63
2019-04-25T02:03:35.679Z,100210.19
2019-04-25T02:07:39.544Z,100214.54
2019-04-25T02:11:44.800Z,100231.81
2019-04-25T02:15:48.284Z,100219.08
2019-04-25T02:19:52.189Z,100222.91
2019-04-25T02:23:58.136Z,100220.33
2019-04-25T02:28:03.740Z,100221.18
2019-04-25T02:32:08.959Z,100206.05
2019-04-25T02:36:14.478Z,100210.88
2019-04-25T02:40:20.614Z,100221.05
2019-04-25T02:44:24.799Z,100236.52
2019-04-25T02:48:30.045Z,100237.73
2019-04-25T02:52:41.511Z,100243.28
2019-04-25T02:56:48.212Z,100234.23
2019-04-25T03:01:03.144Z,100229.56
2019-04-25T03:04:59.286Z,100226.13
2019-04-25T03:09:09.917Z,100234.30
2019-04-25T03:13:14.878Z,100230.50
2019-04-25T03:17:18.493Z,100233.42
2019-04-25T03:21:24.957Z,100235.65
2019-04-25T03:25:28.718Z,100237.00
2019-04-25T03:29:32.197Z,100229.50
2019-04-25T03:33:38.450Z,100221.73
2019-04-25T03:37:41.265Z,100213.93
2019-04-25T03:41:45.481Z,100226.87
2019-04-25T03:45:49.370Z,100240.66
2019-04-25T03:49:55.193Z,100260.52
2019-04-25T03:53:58.156Z,100266.23
2019-04-25T03:58:08.025Z,100293.98
2019-04-25T04:02:10.980Z,100303.50
2019-04-25T04:06:15.623Z,100313.59
2019-04-25T04:10:21.171Z,100317.67
2019-04-25T04:14:24.808Z,100335.31
2019-04-25T04:18:39.544Z,100343.02
2019-04-25T04:22:44.836Z,100359.34
2019-04-25T04:27:07.941Z,100370.48
2019-04-25T04:31:12.233Z,100369.10
2019-04-25T04:35:17.466Z,100369.10
2019-04-25T04:39:21.089Z,100371.87
2019-04-25T04:43:25.631Z,100368.94
2019-04-25T04:47:29.161Z,100372.27
2019-04-25T04:51:33.598Z,100389.11
2019-04-25T04:55:37.462Z,100388.06
2019-04-25T04:59:40.920Z,100384.66
2019-04-25T05:03:48.507Z,100378.55
2019-04-25T05:07:53.988Z,100387.33
2019-04-25T05:11:57.467Z,100396.25
2019-04-25T05:16:00.967Z,100390.06
2019-04-25T05:20:06.496Z,100390.03
2019-04-25T05:24:09.995Z,100388.77
2019-04-25T05:28:16.179Z,100396.32
2019-04-25T05:32:21.280Z,100405.20
2019-04-25T05:36:26.962Z,100406.39
2019-04-25T05:40:30.458Z,100415.31
2019-04-25T05:44:34.389Z,100423.30
2019-04-25T05:48:38.307Z,100438.30
2019-04-25T05:52:45.999Z,100447.36
2019-04-25T05:56:49.852Z,100443.22
2019-04-25T06:00:55.065Z,100449.34
2019-04-25T06:04:58.590Z,100455.62
2019-04-25T06:09:15.725Z,100470.17
2019-04-25T06:13:27.887Z,100472.44
2019-04-25T06:17:34.300Z,100480.41
2019-04-25T06:21:38.000Z,100471.31
2019-04-25T06:25:43.787Z,100481.37
2019-04-25T06:29:58.260Z,100484.17
2019-04-25T06:33:54.101Z,100477.22
2019-04-25T06:37:57.799Z,100481.00
2019-04-25T06:42:01.670Z,100478.30
2019-04-25T06:46:24.791Z,100470.37
2019-04-25T06:50:29.051Z,100470.25
2019-04-25T06:54:33.538Z,100471.20
2019-04-25T06:58:38.002Z,100478.19
2019-04-25T07:02:41.491Z,100474.13
2019-04-25T07:06:45.604Z,100478.70
2019-04-25T07:10:49.214Z,100475.07
2019-04-25T07:14:53.901Z,100480.68
2019-04-25T07:18:57.470Z,100482.58
2019-04-25T07:23:00.964Z,100474.63
2019-04-25T07:27:18.592Z,100478.83
2019-04-25T07:31:37.059Z,100482.69
2019-04-25T07:35:40.652Z,100473.02
2019-04-25T07:39:44.326Z,100460.75
2019-04-25T07:43:47.824Z,100458.23
2019-04-25T07:47:53.650Z,100471.59
2019-04-25T07:51:57.346Z,100481.86
2019-04-25T07:56:00.838Z,100473.53
2019-04-25T08:00:08.047Z,100461.54
2019-04-25T08:04:11.515Z,100470.45
2019-04-25T08:08:15.014Z,100467.36
2019-04-25T08:12:18.821Z,100473.88
2019-04-25T08:16:24.047Z,100465.40
2019-04-25T08:20:29.261Z,100477.63
2019-04-25T08:24:35.967Z,100470.30
2019-04-25T08:28:53.990Z,100455.50
2019-04-25T08:32:45.583Z,100446.38
2019-04-25T08:36:49.084Z,100463.65
2019-04-25T08:40:55.524Z,100469.55
2019-04-25T08:44:58.268Z,100468.36
2019-04-25T08:49:06.173Z,100471.22
2019-04-25T08:53:09.055Z,100470.05
2019-04-25T08:57:14.263Z,100478.03
2019-04-25T09:01:20.829Z,100498.33
2019-04-25T09:05:29.102Z,100488.34
2019-04-25T09:09:35.398Z,100483.71
2019-04-25T09:13:38.628Z,100479.64
2019-04-25T09:17:44.489Z,100474.61
2019-04-25T09:21:49.623Z,100474.51
2019-04-25T09:25:54.448Z,100487.98
2019-04-25T09:29:58.043Z,100484.02
2019-04-25T09:34:01.576Z,100492.38
2019-04-25T09:38:05.235Z,100474.92
2019-04-25T09:42:09.451Z,100485.70
2019-04-25T09:46:14.706Z,100493.86
2019-04-25T09:50:33.863Z,100489.97
2019-04-25T09:54:48.364Z,100495.52
2019-04-25T09:58:55.506Z,100498.64
2019-04-25T10:02:59.508Z,100498.15
2019-04-25T10:07:03.538Z,100494.66
2019-04-25T10:11:07.346Z,100504.54
2019-04-25T10:15:33.666Z,100497.16
2019-04-25T10:19:37.760Z,100473.88
2019-04-25T10:23:44.066Z,100469.16
2019-04-25T10:27:49.205Z,100464.94
2019-04-25T10:31:55.463Z,100461.58
2019-04-25T10:35:59.540Z,100477.80
2019-04-25T10:40:05.685Z,100471.09
2019-04-25T10:44:09.586Z,100465.74
2019-04-25T10:48:13.723Z,100482.97
2019-04-25T10:52:18.051Z,100473.11
2019-04-25T10:56:21.612Z,100470.89
2019-04-25T11:00:28.486Z,100479.19
2019-04-25T11:04:48.236Z,100479.83
2019-04-25T11:08:51.368Z,100463.13
2019-04-25T11:12:55.293Z,100459.08
2019-04-25T11:16:59.043Z,100465.24
2019-04-25T11:21:05.779Z,100457.22
2019-04-25T11:25:08.566Z,100445.63
2019-04-25T11:29:13.313Z,100451.70
2019-04-25T11:33:18.798Z,100442.86
2019-04-25T11:37:24.023Z,100446.00
2019-04-25T11:41:27.804Z,100432.66
2019-04-25T11:45:31.327Z,100428.78
2019-04-25T11:49:34.832Z,100439.70
2019-04-25T11:53:38.666Z,100441.17
2019-04-25T11:57:48.297Z,100436.59
2019-04-25T12:01:48.517Z,100436.59
2019-04-25T12:05:53.131Z,100437.72
2019-04-25T12:09:56.679Z,100419.84
2019-04-25T12:14:00.368Z,100430.54
2019-04-25T12:18:04.651Z,100430.17
2019-04-25T12:22:08.384Z,100435.66
2019-04-25T12:26:11.897Z,100432.94
2019-04-25T12:30:16.004Z,100424.31
2019-04-25T12:34:19.631Z,100425.45
2019-04-25T12:38:24.583Z,100433.39
2019-04-25T12:42:28.185Z,100422.22
2019-04-25T12:46:34.822Z,100424.78
2019-04-25T12:50:38.518Z,100427.16
2019-04-25T12:54:42.092Z,100429.15
2019-04-25T12:58:45.586Z,100435.08
2019-04-25T13:02:49.361Z,100424.45
2019-04-25T13:06:54.423Z,100422.03
2019-04-25T13:11:07.568Z,100410.91
2019-04-25T13:15:03.516Z,100405.59
2019-04-25T13:19:16.488Z,100412.90
2019-04-25T13:23:14.411Z,100420.42
2019-04-25T13:27:28.436Z,100406.16
2019-04-25T13:31:44.314Z,100411.52
2019-04-25T13:35:55.484Z,100410.88
2019-04-25T13:40:00.475Z,100422.33
2019-04-25T13:44:05.578Z,100412.14
2019-04-25T13:48:09.305Z,100417.95
2019-04-25T13:52:13.968Z,100416.32
2019-04-25T13:56:17.915Z,100402.84
2019-04-25T14:00:24.726Z,100402.94
2019-04-25T14:04:29.389Z,100399.41
2019-04-25T14:08:33.540Z,100389.74
2019-04-25T14:12:37.144Z,100394.96
2019-04-25T14:16:43.424Z,100389.66
2019-04-25T14:20:49.043Z,100376.45
2019-04-25T14:24:54.073Z,100376.45
2019-04-25T14:29:00.680Z,100366.94
2019-04-25T14:33:04.797Z,100364.78
2019-04-25T14:37:09.620Z,100373.61
2019-04-25T14:41:13.207Z,100374.72
2019-04-25T14:45:16.871Z,100376.31
2019-04-25T14:49:20.365Z,100383.77
2019-04-25T14:53:24.414Z,100378.58
2019-04-25T14:57:29.882Z,100376.67
2019-04-25T15:01:44.064Z,100372.81
2019-04-25T15:05:41.845Z,100369.28
2019-04-25T15:09:44.608Z,100371.59
2019-04-25T15:13:48.395Z,100367.05
2019-04-25T15:17:51.945Z,100365.63
2019-04-25T15:21:55.460Z,100357.52
2019-04-25T15:25:59.119Z,100358.83
2019-04-25T15:30:04.600Z,100348.55
2019-04-25T15:34:08.167Z,100346.94
2019-04-25T15:38:16.220Z,100355.13
2019-04-25T15:42:39.233Z,100341.30
2019-04-25T15:46:44.378Z,100342.52
2019-04-25T15:50:48.038Z,100341.81
2019-04-25T15:54:51.711Z,100339.71
2019-04-25T15:58:55.692Z,100337.70
2019-04-25T16:02:59.309Z,100331.34
2019-04-25T16:07:02.806Z,100331.64
2019-04-25T16:11:06.305Z,100325.19
2019-04-25T16:15:10.130Z,100324.59
2019-04-25T16:19:13.614Z,100320.36
2019-04-25T16:23:17.259Z,100321.86
2019-04-25T16:27:21.318Z,100319.38
2019-04-25T16:31:28.964Z,100314.81
2019-04-25T16:35:33.445Z,100315.75
2019-04-25T16:39:37.009Z,100308.56
2019-04-25T16:43:43.187Z,100311.65
2019-04-25T16:47:47.164Z,100313.23
2019-04-25T16:51:50.710Z,100311.61
2019-04-25T16:55:54.206Z,100314.66
2019-04-25T16:59:57.710Z,100322.91
2019-04-25T17:04:01.423Z,100318.42
2019-04-25T17:08:05.293Z,100319.44
2019-04-25T17:12:10.332Z,100319.98
2019-04-25T17:16:22.206Z,100320.44
2019-04-25T17:20:30.726Z,100319.88
2019-04-25T17:24:34.636Z,100316.43
2019-04-25T17:28:39.760Z,100312.81
2019-04-25T17:33:01.842Z,100311.32
2019-04-25T17:37:06.974Z,100315.92
2019-04-25T17:41:10.522Z,100317.78
2019-04-25T17:45:16.263Z,100320.06
2019-04-25T17:49:19.941Z,100313.39
2019-04-25T17:53:23.434Z,100309.67
2019-04-25T17:57:26.917Z,100304.01
2019-04-25T18:01:30.715Z,100303.17
2019-04-25T18:05:35.175Z,100301.65
2019-04-25T18:09:38.865Z,100301.88
2019-04-25T18:13:42.611Z,100299.75
2019-04-25T18:17:46.651Z,100296.70
2019-04-25T18:21:50.438Z,100300.52
2019-04-25T18:26:01.478Z,100296.62
2019-04-25T18:30:06.776Z,100294.28
2019-04-25T18:34:11.908Z,100288.13
2019-04-25T18:38:17.478Z,100291.95
2019-04-25T18:42:25.158Z,100291.30
2019-04-25T18:46:33.388Z,100288.02
2019-04-25T18:50:37.349Z,100288.88
2019-04-25T18:54:43.497Z,100287.98
2019-04-25T18:59:04.814Z,100296.72
2019-04-25T19:03:22.973Z,100305.03
2019-04-25T19:07:24.283Z,100299.59
2019-04-25T19:11:28.078Z,100301.48
2019-04-25T19:15:31.580Z,100304.59
2019-04-25T19:19:35.230Z,100297.08
2019-04-25T19:23:40.470Z,100299.24
2019-04-25T19:27:44.503Z,100291.73
2019-04-25T19:31:48.410Z,100286.10
2019-04-25T19:35:52.302Z,100286.68
2019-04-25T19:40:09.393Z,100283.80
2019-04-25T19:44:14.553Z,100277.28
2019-04-25T19:48:18.213Z,100279.33
2019-04-25T19:52:21.729Z,100270.89
2019-04-25T19:56:25.188Z,100270.95
2019-04-25T20:00:28.693Z,100274.83
2019-04-25T20:04:33.873Z,100266.98
2019-04-25T20:08:56.750Z,100269.83
2019-04-25T20:13:00.225Z,100265.01
2019-04-25T20:17:03.777Z,100264.34
2019-04-25T20:21:07.260Z,100266.48
2019-04-25T20:25:11.283Z,100266.09
2019-04-25T20:29:16.215Z,100263.34
2019-04-25T20:33:19.721Z,100257.79
2019-04-25T20:37:23.205Z,100249.70
2019-04-25T20:41:26.784Z,100251.00
2019-04-25T20:45:30.485Z,100256.38
2019-04-25T20:49:33.983Z,100251.19
2019-04-25T20:53:37.850Z,100263.16
2019-04-25T20:57:41.372Z,100263.51
2019-04-25T21:01:44.891Z,100261.48
2019-04-25T21:05:50.963Z,100254.58
2019-04-25T21:09:55.337Z,100249.55
2019-04-25T21:14:03.478Z,100257.99
2019-04-25T21:18:08.936Z,100263.52
2019-04-25T21:22:12.873Z,100256.31
2019-04-25T21:26:16.906Z,100254.80
2019-04-25T21:30:20.413Z,100261.45
2019-04-25T21:34:27.131Z,100257.86
2019-04-25T21:38:29.531Z,100253.96
2019-04-25T21:42:34.938Z,100257.23
2019-04-25T21:46:39.893Z,100259.42
2019-04-25T21:50:45.196Z,100252.31
2019-04-25T21:54:48.728Z,100254.14
2019-04-25T21:58:53.352Z,100253.50
2019-04-25T22:03:00.214Z,100254.70
2019-04-25T22:07:04.060Z,100246.95
2019-04-25T22:11:08.614Z,100242.21
2019-04-25T22:15:13.034Z,100243.83
2019-04-25T22:19:16.884Z,100243.08
2019-04-25T22:23:20.986Z,100238.28
2019-04-25T22:27:26.399Z,100237.41
2019-04-25T22:31:47.706Z,100236.63
2019-04-25T22:35:52.828Z,100246.72
2019-04-25T22:39:56.581Z,100239.84
2019-04-25T22:44:01.236Z,100232.36
2019-04-25T22:48:06.659Z,100238.58
2019-04-25T22:52:11.187Z,100233.78
2019-04-25T22:56:14.862Z,100235.42
2019-04-25T23:00:20.208Z,100221.52
2019-04-25T23:04:25.634Z,100219.56
2019-04-25T23:08:29.204Z,100219.73
2019-04-25T23:12:32.969Z,100226.41
2019-04-25T23:16:36.529Z,100224.47
2019-04-25T23:20:40.117Z,100213.95
2019-04-25T23:24:54.327Z,100211.05
2019-04-25T23:28:59.468Z,100204.73
2019-04-25T23:33:02.962Z,100205.22
2019-04-25T23:37:07.715Z,100207.97
2019-04-25T23:41:13.603Z,100209.27
2019-04-25T23:45:18.194Z,100205.05
2019-04-25T23:49:21.704Z,100206.33
2019-04-25T23:53:25.377Z,100203.50
2019-04-25T23:57:28.871Z,100202.40
